sensor_id;sensor_type;location;lat;lon;timestamp;temperature;humidity
2855;DHT22;1435;49.472;10.940;2023-03-01T00:02:18;1.50;99.20
2855;DHT22;1435;49.472;10.940;2023-03-01T00:07:19;1.50;99.40
2855;DHT22;1435;49.472;10.940;2023-03-01T00:12:22;1.40;99.60
2855;DHT22;1435;49.472;10.940;2023-03-01T00:17:24;1.30;99.90
2855;DHT22;1435;49.472;10.940;2023-03-01T00:22:26;1.30;99.90
2855;DHT22;1435;49.472;10.940;2023-03-01T00:27:30;1.30;99.90
2855;DHT22;1435;49.472;10.940;2023-03-01T00:32:31;1.30;99.90
2855;DHT22;1435;49.472;10.940;2023-03-01T00:37:33;1.30;99.90
2855;DHT22;1435;49.472;10.940;2023-03-01T00:42:36;1.30;99.90
2855;DHT22;1435;49.472;10.940;2023-03-01T00:47:38;1.20;99.90
2855;DHT22;1435;49.472;10.940;2023-03-01T00:52:40;1.30;99.90
2855;DHT22;1435;49.472;10.940;2023-03-01T00:57:43;1.20;99.90
2855;DHT22;1435;49.472;10.940;2023-03-01T01:02:45;1.20;99.90
2855;DHT22;1435;49.472;10.940;2023-03-01T01:07:47;1.10;99.90
2855;DHT22;1435;49.472;10.940;2023-03-01T01:12:50;1.10;99.90
2855;DHT22;1435;49.472;10.940;2023-03-01T01:17:52;1.10;99.90
2855;DHT22;1435;49.472;10.940;2023-03-01T01:22:54;1.00;99.90
2855;DHT22;1435;49.472;10.940;2023-03-01T01:27:57;0.90;99.90
2855;DHT22;1435;49.472;10.940;2023-03-01T01:32:59;0.80;99.90
2855;DHT22;1435;49.472;10.940;2023-03-01T01:38:00;0.80;99.90
2855;DHT22;1435;49.472;10.940;2023-03-01T01:43:05;0.80;99.90
2855;DHT22;1435;49.472;10.940;2023-03-01T01:48:13;0.70;99.90
2855;DHT22;1435;49.472;10.940;2023-03-01T01:53:19;0.70;99.90
2855;DHT22;1435;49.472;10.940;2023-03-01T01:58:24;0.60;99.90
2855;DHT22;1435;49.472;10.940;2023-03-01T02:03:31;0.50;99.90
2855;DHT22;1435;49.472;10.940;2023-03-01T02:08:39;0.50;99.90
2855;DHT22;1435;49.472;10.940;2023-03-01T02:13:44;0.40;99.90
2855;DHT22;1435;49.472;10.940;2023-03-01T02:18:50;0.40;99.90
2855;DHT22;1435;49.472;10.940;2023-03-01T02:23:53;0.30;99.90
2855;DHT22;1435;49.472;10.940;2023-03-01T02:28:57;0.30;99.90
2855;DHT22;1435;49.472;10.940;2023-03-01T02:33:59;0.30;99.90
2855;DHT22;1435;49.472;10.940;2023-03-01T02:39:06;0.20;99.90
2855;DHT22;1435;49.472;10.940;2023-03-01T02:44:16;0.10;99.90
2855;DHT22;1435;49.472;10.940;2023-03-01T02:49:20;0.10;99.90
2855;DHT22;1435;49.472;10.940;2023-03-01T02:54:26;0.00;99.90
2855;DHT22;1435;49.472;10.940;2023-03-01T02:59:33;0.00;99.90
2855;DHT22;1435;49.472;10.940;2023-03-01T03:04:39;0.00;99.90
2855;DHT22;1435;49.472;10.940;2023-03-01T03:09:42;0.00;99.90
2855;DHT22;1435;49.472;10.940;2023-03-01T03:14:45;-0.20;99.90
2855;DHT22;1435;49.472;10.940;2023-03-01T03:19:47;-0.20;99.90
2855;DHT22;1435;49.472;10.940;2023-03-01T03:24:48;-0.30;99.90
2855;DHT22;1435;49.472;10.940;2023-03-01T03:29:51;-0.20;99.90
2855;DHT22;1435;49.472;10.940;2023-03-01T03:34:53;-0.20;99.90
2855;DHT22;1435;49.472;10.940;2023-03-01T03:39:55;-0.20;99.90
2855;DHT22;1435;49.472;10.940;2023-03-01T03:44:58;-0.20;99.90
2855;DHT22;1435;49.472;10.940;2023-03-01T03:49:59;-0.20;99.90
2855;DHT22;1435;49.472;10.940;2023-03-01T03:55:01;-0.20;99.90
2855;DHT22;1435;49.472;10.940;2023-03-01T04:00:07;-0.10;99.90
2855;DHT22;1435;49.472;10.940;2023-03-01T04:05:15;-0.10;99.90
2855;DHT22;1435;49.472;10.940;2023-03-01T04:10:18;-0.10;99.90
2855;DHT22;1435;49.472;10.940;2023-03-01T04:15:22;-0.10;99.90
2855;DHT22;1435;49.472;10.940;2023-03-01T04:20:28;-0.10;99.90
2855;DHT22;1435;49.472;10.940;2023-03-01T04:25:30;-0.10;99.90
2855;DHT22;1435;49.472;10.940;2023-03-01T04:30:37;-0.10;99.90
2855;DHT22;1435;49.472;10.940;2023-03-01T04:35:39;-0.20;99.90
2855;DHT22;1435;49.472;10.940;2023-03-01T04:40:41;-0.20;99.90
2855;DHT22;1435;49.472;10.940;2023-03-01T04:45:45;-0.20;99.90
2855;DHT22;1435;49.472;10.940;2023-03-01T04:50:46;-0.30;99.90
2855;DHT22;1435;49.472;10.940;2023-03-01T04:55:48;-0.30;99.90
2855;DHT22;1435;49.472;10.940;2023-03-01T05:00:52;-0.40;99.90
2855;DHT22;1435;49.472;10.940;2023-03-01T05:05:54;-0.30;99.90
2855;DHT22;1435;49.472;10.940;2023-03-01T05:11:00;-0.40;99.90
2855;DHT22;1435;49.472;10.940;2023-03-01T05:16:04;-0.50;99.90
2855;DHT22;1435;49.472;10.940;2023-03-01T05:21:08;-0.50;99.90
2855;DHT22;1435;49.472;10.940;2023-03-01T05:26:10;-0.60;99.90
2855;DHT22;1435;49.472;10.940;2023-03-01T05:31:14;-0.60;99.90
2855;DHT22;1435;49.472;10.940;2023-03-01T05:36:16;-0.70;99.90
2855;DHT22;1435;49.472;10.940;2023-03-01T05:41:18;-0.70;99.90
2855;DHT22;1435;49.472;10.940;2023-03-01T05:46:21;-0.70;99.90
2855;DHT22;1435;49.472;10.940;2023-03-01T05:51:24;-0.70;99.90
2855;DHT22;1435;49.472;10.940;2023-03-01T05:56:26;-0.70;99.90
2855;DHT22;1435;49.472;10.940;2023-03-01T06:01:29;-0.60;99.90
2855;DHT22;1435;49.472;10.940;2023-03-01T06:06:34;-0.60;99.90
2855;DHT22;1435;49.472;10.940;2023-03-01T06:11:37;-0.60;99.90
2855;DHT22;1435;49.472;10.940;2023-03-01T06:16:40;-0.50;99.90
2855;DHT22;1435;49.472;10.940;2023-03-01T06:21:42;-0.50;99.90
2855;DHT22;1435;49.472;10.940;2023-03-01T06:26:44;-0.50;99.90
2855;DHT22;1435;49.472;10.940;2023-03-01T06:31:47;-0.50;99.90
2855;DHT22;1435;49.472;10.940;2023-03-01T06:36:49;-0.40;99.90
2855;DHT22;1435;49.472;10.940;2023-03-01T06:41:51;-0.40;99.90
2855;DHT22;1435;49.472;10.940;2023-03-01T06:46:54;-0.30;99.90
2855;DHT22;1435;49.472;10.940;2023-03-01T06:51:56;-0.30;99.90
2855;DHT22;1435;49.472;10.940;2023-03-01T06:56:58;-0.20;99.90
2855;DHT22;1435;49.472;10.940;2023-03-01T07:02:01;-0.20;99.90
2855;DHT22;1435;49.472;10.940;2023-03-01T07:07:02;-0.10;99.90
2855;DHT22;1435;49.472;10.940;2023-03-01T07:12:04;0.00;99.90
2855;DHT22;1435;49.472;10.940;2023-03-01T07:17:08;0.00;99.90
2855;DHT22;1435;49.472;10.940;2023-03-01T07:22:09;0.10;99.90
2855;DHT22;1435;49.472;10.940;2023-03-01T07:27:11;0.20;99.90
2855;DHT22;1435;49.472;10.940;2023-03-01T07:32:14;0.40;99.90
2855;DHT22;1435;49.472;10.940;2023-03-01T07:37:16;0.40;99.90
2855;DHT22;1435;49.472;10.940;2023-03-01T07:42:18;0.50;99.90
2855;DHT22;1435;49.472;10.940;2023-03-01T07:47:21;0.60;99.90
2855;DHT22;1435;49.472;10.940;2023-03-01T07:52:23;0.70;99.90
2855;DHT22;1435;49.472;10.940;2023-03-01T07:57:25;0.80;99.90
2855;DHT22;1435;49.472;10.940;2023-03-01T08:02:28;0.90;99.90
2855;DHT22;1435;49.472;10.940;2023-03-01T08:07:29;1.00;99.90
2855;DHT22;1435;49.472;10.940;2023-03-01T08:12:32;1.10;99.90
2855;DHT22;1435;49.472;10.940;2023-03-01T08:17:35;1.20;99.90
2855;DHT22;1435;49.472;10.940;2023-03-01T08:22:37;1.30;99.90
2855;DHT22;1435;49.472;10.940;2023-03-01T08:27:38;1.40;99.90
2855;DHT22;1435;49.472;10.940;2023-03-01T08:32:41;1.50;99.90
2855;DHT22;1435;49.472;10.940;2023-03-01T08:37:43;1.60;99.90
2855;DHT22;1435;49.472;10.940;2023-03-01T08:42:45;1.80;99.90
2855;DHT22;1435;49.472;10.940;2023-03-01T08:47:52;1.90;99.90
2855;DHT22;1435;49.472;10.940;2023-03-01T08:52:53;2.00;99.90
2855;DHT22;1435;49.472;10.940;2023-03-01T08:57:55;2.10;99.90
2855;DHT22;1435;49.472;10.940;2023-03-01T09:03:00;2.10;99.90
2855;DHT22;1435;49.472;10.940;2023-03-01T09:08:02;2.30;99.90
2855;DHT22;1435;49.472;10.940;2023-03-01T09:13:04;2.40;99.90
2855;DHT22;1435;49.472;10.940;2023-03-01T09:18:07;2.50;99.90
2855;DHT22;1435;49.472;10.940;2023-03-01T09:23:08;2.60;99.90
2855;DHT22;1435;49.472;10.940;2023-03-01T09:28:10;2.70;99.90
2855;DHT22;1435;49.472;10.940;2023-03-01T09:33:13;2.90;99.90
2855;DHT22;1435;49.472;10.940;2023-03-01T09:38:15;3.00;99.90
2855;DHT22;1435;49.472;10.940;2023-03-01T09:43:22;3.10;99.90
2855;DHT22;1435;49.472;10.940;2023-03-01T09:48:27;3.20;99.90
2855;DHT22;1435;49.472;10.940;2023-03-01T09:53:32;3.30;99.90
2855;DHT22;1435;49.472;10.940;2023-03-01T09:58:41;3.40;99.90
2855;DHT22;1435;49.472;10.940;2023-03-01T10:04:04;3.50;99.90
2855;DHT22;1435;49.472;10.940;2023-03-01T10:09:11;3.70;99.90
2855;DHT22;1435;49.472;10.940;2023-03-01T10:14:22;3.80;99.90
2855;DHT22;1435;49.472;10.940;2023-03-01T10:19:32;3.90;99.90
2855;DHT22;1435;49.472;10.940;2023-03-01T10:24:35;4.00;99.90
2855;DHT22;1435;49.472;10.940;2023-03-01T10:29:40;4.10;99.80
2855;DHT22;1435;49.472;10.940;2023-03-01T10:34:46;4.30;98.70
2855;DHT22;1435;49.472;10.940;2023-03-01T10:39:58;4.40;98.90
2855;DHT22;1435;49.472;10.940;2023-03-01T10:45:15;4.50;98.80
2855;DHT22;1435;49.472;10.940;2023-03-01T10:50:21;4.60;98.10
2855;DHT22;1435;49.472;10.940;2023-03-01T10:55:26;4.70;96.90
2855;DHT22;1435;49.472;10.940;2023-03-01T11:00:29;4.90;97.80
2855;DHT22;1435;49.472;10.940;2023-03-01T11:05:33;5.00;97.60
2855;DHT22;1435;49.472;10.940;2023-03-01T11:10:35;5.10;97.70
2855;DHT22;1435;49.472;10.940;2023-03-01T11:15:37;5.20;97.30
2855;DHT22;1435;49.472;10.940;2023-03-01T11:20:41;5.30;96.60
2855;DHT22;1435;49.472;10.940;2023-03-01T11:25:47;5.50;96.30
2855;DHT22;1435;49.472;10.940;2023-03-01T11:30:54;5.50;96.00
2855;DHT22;1435;49.472;10.940;2023-03-01T11:36:02;5.70;96.20
2855;DHT22;1435;49.472;10.940;2023-03-01T11:41:10;5.80;95.80
2855;DHT22;1435;49.472;10.940;2023-03-01T11:46:55;5.90;95.20
2855;DHT22;1435;49.472;10.940;2023-03-01T11:52:11;6.00;94.80
2855;DHT22;1435;49.472;10.940;2023-03-01T11:57:20;6.20;95.00
2855;DHT22;1435;49.472;10.940;2023-03-01T12:08:14;6.40;94.00
2855;DHT22;1435;49.472;10.940;2023-03-01T12:13:35;6.50;94.60
2855;DHT22;1435;49.472;10.940;2023-03-01T12:19:08;6.60;94.70
2855;DHT22;1435;49.472;10.940;2023-03-01T12:24:35;6.70;93.70
2855;DHT22;1435;49.472;10.940;2023-03-01T12:29:43;6.90;92.80
2855;DHT22;1435;49.472;10.940;2023-03-01T12:35:21;7.00;94.60
2855;DHT22;1435;49.472;10.940;2023-03-01T12:40:47;7.20;92.20
2855;DHT22;1435;49.472;10.940;2023-03-01T12:46:09;7.40;92.00
2855;DHT22;1435;49.472;10.940;2023-03-01T12:51:14;7.60;92.80
2855;DHT22;1435;49.472;10.940;2023-03-01T12:56:21;7.80;92.20
2855;DHT22;1435;49.472;10.940;2023-03-01T13:01:33;7.90;91.60
2855;DHT22;1435;49.472;10.940;2023-03-01T13:06:41;8.00;91.00
2855;DHT22;1435;49.472;10.940;2023-03-01T13:11:46;8.20;90.30
2855;DHT22;1435;49.472;10.940;2023-03-01T13:16:48;8.30;90.00
2855;DHT22;1435;49.472;10.940;2023-03-01T13:21:52;8.50;89.20
2855;DHT22;1435;49.472;10.940;2023-03-01T13:27:22;8.60;90.40
2855;DHT22;1435;49.472;10.940;2023-03-01T13:32:35;8.80;90.20
2855;DHT22;1435;49.472;10.940;2023-03-01T13:37:38;9.00;90.10
2855;DHT22;1435;49.472;10.940;2023-03-01T13:42:43;9.20;87.60
2855;DHT22;1435;49.472;10.940;2023-03-01T13:47:47;9.40;89.80
2855;DHT22;1435;49.472;10.940;2023-03-01T13:52:56;9.60;88.30
2855;DHT22;1435;49.472;10.940;2023-03-01T13:58:04;9.70;87.60
2855;DHT22;1435;49.472;10.940;2023-03-01T14:03:12;10.00;86.90
2855;DHT22;1435;49.472;10.940;2023-03-01T14:08:23;10.20;85.30
2855;DHT22;1435;49.472;10.940;2023-03-01T14:13:36;10.30;84.70
2855;DHT22;1435;49.472;10.940;2023-03-01T14:18:45;10.50;82.40
2855;DHT22;1435;49.472;10.940;2023-03-01T14:23:49;10.70;83.40
2855;DHT22;1435;49.472;10.940;2023-03-01T14:28:52;10.80;83.00
2855;DHT22;1435;49.472;10.940;2023-03-01T14:33:55;10.90;82.70
2855;DHT22;1435;49.472;10.940;2023-03-01T14:38:57;11.10;82.70
2855;DHT22;1435;49.472;10.940;2023-03-01T14:44:11;11.20;81.90
2855;DHT22;1435;49.472;10.940;2023-03-01T14:49:16;11.40;81.50
2855;DHT22;1435;49.472;10.940;2023-03-01T14:54:21;11.60;81.40
2855;DHT22;1435;49.472;10.940;2023-03-01T14:59:27;11.80;79.50
2855;DHT22;1435;49.472;10.940;2023-03-01T15:04:29;11.90;80.20
2855;DHT22;1435;49.472;10.940;2023-03-01T15:09:35;12.00;78.30
2855;DHT22;1435;49.472;10.940;2023-03-01T15:14:43;12.10;78.10
2855;DHT22;1435;49.472;10.940;2023-03-01T15:19:47;12.30;78.80
2855;DHT22;1435;49.472;10.940;2023-03-01T15:24:49;12.40;76.80
2855;DHT22;1435;49.472;10.940;2023-03-01T15:29:54;12.50;77.20
2855;DHT22;1435;49.472;10.940;2023-03-01T15:34:57;12.60;76.90
2855;DHT22;1435;49.472;10.940;2023-03-01T15:39:59;12.70;76.30
2855;DHT22;1435;49.472;10.940;2023-03-01T15:45:10;12.80;74.90
2855;DHT22;1435;49.472;10.940;2023-03-01T15:50:18;12.70;74.10
2855;DHT22;1435;49.472;10.940;2023-03-01T15:55:22;12.70;74.60
2855;DHT22;1435;49.472;10.940;2023-03-01T16:00:26;12.50;75.00
2855;DHT22;1435;49.472;10.940;2023-03-01T16:05:29;12.30;73.90
2855;DHT22;1435;49.472;10.940;2023-03-01T16:10:32;12.30;75.30
2855;DHT22;1435;49.472;10.940;2023-03-01T16:15:35;12.30;75.00
2855;DHT22;1435;49.472;10.940;2023-03-01T16:20:39;12.20;75.40
2855;DHT22;1435;49.472;10.940;2023-03-01T16:25:41;11.90;74.90
2855;DHT22;1435;49.472;10.940;2023-03-01T16:30:46;11.80;75.20
2855;DHT22;1435;49.472;10.940;2023-03-01T16:35:49;11.60;74.20
2855;DHT22;1435;49.472;10.940;2023-03-01T16:40:51;11.40;75.20
2855;DHT22;1435;49.472;10.940;2023-03-01T16:45:55;11.20;75.40
2855;DHT22;1435;49.472;10.940;2023-03-01T16:50:58;11.10;75.70
2855;DHT22;1435;49.472;10.940;2023-03-01T16:56:00;10.90;75.50
2855;DHT22;1435;49.472;10.940;2023-03-01T17:01:08;10.80;76.50
2855;DHT22;1435;49.472;10.940;2023-03-01T17:06:16;10.70;76.90
2855;DHT22;1435;49.472;10.940;2023-03-01T17:11:19;10.60;77.20
2855;DHT22;1435;49.472;10.940;2023-03-01T17:16:22;10.40;77.70
2855;DHT22;1435;49.472;10.940;2023-03-01T17:21:24;10.30;77.90
2855;DHT22;1435;49.472;10.940;2023-03-01T17:26:26;10.20;78.30
2855;DHT22;1435;49.472;10.940;2023-03-01T17:31:31;10.10;78.60
2855;DHT22;1435;49.472;10.940;2023-03-01T17:36:32;9.90;80.10
2855;DHT22;1435;49.472;10.940;2023-03-01T17:41:41;9.80;80.40
2855;DHT22;1435;49.472;10.940;2023-03-01T17:46:44;9.70;80.40
2855;DHT22;1435;49.472;10.940;2023-03-01T17:51:46;9.60;80.70
2855;DHT22;1435;49.472;10.940;2023-03-01T17:56:47;9.60;81.40
2855;DHT22;1435;49.472;10.940;2023-03-01T18:01:51;9.40;81.50
2855;DHT22;1435;49.472;10.940;2023-03-01T18:06:53;9.30;81.60
2855;DHT22;1435;49.472;10.940;2023-03-01T18:11:55;9.20;81.70
2855;DHT22;1435;49.472;10.940;2023-03-01T18:16:59;9.20;82.20
2855;DHT22;1435;49.472;10.940;2023-03-01T18:22:01;9.10;82.30
2855;DHT22;1435;49.472;10.940;2023-03-01T18:27:03;9.00;82.60
2855;DHT22;1435;49.472;10.940;2023-03-01T18:32:06;9.00;82.70
2855;DHT22;1435;49.472;10.940;2023-03-01T18:37:08;8.90;82.80
2855;DHT22;1435;49.472;10.940;2023-03-01T18:42:10;8.80;83.10
2855;DHT22;1435;49.472;10.940;2023-03-01T18:47:13;8.70;83.30
2855;DHT22;1435;49.472;10.940;2023-03-01T18:52:15;8.60;83.60
2855;DHT22;1435;49.472;10.940;2023-03-01T18:57:16;8.50;83.80
2855;DHT22;1435;49.472;10.940;2023-03-01T19:02:19;8.50;84.10
2855;DHT22;1435;49.472;10.940;2023-03-01T19:07:21;8.40;84.20
2855;DHT22;1435;49.472;10.940;2023-03-01T19:12:23;8.30;84.40
2855;DHT22;1435;49.472;10.940;2023-03-01T19:17:26;8.20;84.60
2855;DHT22;1435;49.472;10.940;2023-03-01T19:22:30;8.10;84.80
2855;DHT22;1435;49.472;10.940;2023-03-01T19:27:32;8.00;85.10
2855;DHT22;1435;49.472;10.940;2023-03-01T19:32:36;7.90;85.30
2855;DHT22;1435;49.472;10.940;2023-03-01T19:37:37;7.80;85.80
2855;DHT22;1435;49.472;10.940;2023-03-01T19:42:39;7.70;86.10
2855;DHT22;1435;49.472;10.940;2023-03-01T19:47:45;7.60;86.40
2855;DHT22;1435;49.472;10.940;2023-03-01T19:52:47;7.60;86.50
2855;DHT22;1435;49.472;10.940;2023-03-01T19:57:48;7.50;86.70
2855;DHT22;1435;49.472;10.940;2023-03-01T20:02:52;7.40;87.00
2855;DHT22;1435;49.472;10.940;2023-03-01T20:07:54;7.30;87.60
2855;DHT22;1435;49.472;10.940;2023-03-01T20:12:58;7.20;87.80
2855;DHT22;1435;49.472;10.940;2023-03-01T20:18:03;7.10;87.90
2855;DHT22;1435;49.472;10.940;2023-03-01T20:23:05;7.00;88.10
2855;DHT22;1435;49.472;10.940;2023-03-01T20:28:06;6.80;88.50
2855;DHT22;1435;49.472;10.940;2023-03-01T20:33:10;6.80;88.90
2855;DHT22;1435;49.472;10.940;2023-03-01T20:38:12;6.70;89.10
2855;DHT22;1435;49.472;10.940;2023-03-01T20:43:14;6.60;89.30
2855;DHT22;1435;49.472;10.940;2023-03-01T20:48:17;6.50;89.40
2855;DHT22;1435;49.472;10.940;2023-03-01T20:53:19;6.30;89.80
2855;DHT22;1435;49.472;10.940;2023-03-01T20:58:20;6.20;89.50
2855;DHT22;1435;49.472;10.940;2023-03-01T21:03:23;6.10;89.70
2855;DHT22;1435;49.472;10.940;2023-03-01T21:08:25;6.00;89.90
2855;DHT22;1435;49.472;10.940;2023-03-01T21:13:27;5.80;90.10
2855;DHT22;1435;49.472;10.940;2023-03-01T21:18:31;5.60;90.50
2855;DHT22;1435;49.472;10.940;2023-03-01T21:23:35;5.60;90.70
2855;DHT22;1435;49.472;10.940;2023-03-01T21:28:38;5.50;91.00
2855;DHT22;1435;49.472;10.940;2023-03-01T21:33:45;5.40;91.00
2855;DHT22;1435;49.472;10.940;2023-03-01T21:38:48;5.30;90.70
2855;DHT22;1435;49.472;10.940;2023-03-01T21:43:52;5.30;91.20
2855;DHT22;1435;49.472;10.940;2023-03-01T21:48:56;5.10;91.40
2855;DHT22;1435;49.472;10.940;2023-03-01T21:53:59;5.00;91.60
2855;DHT22;1435;49.472;10.940;2023-03-01T21:59:01;4.90;91.60
2855;DHT22;1435;49.472;10.940;2023-03-01T22:04:04;4.80;91.70
2855;DHT22;1435;49.472;10.940;2023-03-01T22:09:08;4.70;91.90
2855;DHT22;1435;49.472;10.940;2023-03-01T22:14:12;4.50;91.90
2855;DHT22;1435;49.472;10.940;2023-03-01T22:19:16;4.40;92.20
2855;DHT22;1435;49.472;10.940;2023-03-01T22:24:21;4.30;92.60
2855;DHT22;1435;49.472;10.940;2023-03-01T22:29:25;4.30;92.60
2855;DHT22;1435;49.472;10.940;2023-03-01T22:34:29;4.20;92.50
2855;DHT22;1435;49.472;10.940;2023-03-01T22:39:31;4.00;93.00
2855;DHT22;1435;49.472;10.940;2023-03-01T22:44:33;4.00;93.40
2855;DHT22;1435;49.472;10.940;2023-03-01T22:49:36;4.00;94.00
2855;DHT22;1435;49.472;10.940;2023-03-01T22:54:38;4.00;94.40
2855;DHT22;1435;49.472;10.940;2023-03-01T22:59:40;4.00;94.00
2855;DHT22;1435;49.472;10.940;2023-03-01T23:04:43;4.00;93.80
2855;DHT22;1435;49.472;10.940;2023-03-01T23:09:47;3.90;93.90
2855;DHT22;1435;49.472;10.940;2023-03-01T23:14:49;3.90;94.30
2855;DHT22;1435;49.472;10.940;2023-03-01T23:19:52;3.90;94.60
2855;DHT22;1435;49.472;10.940;2023-03-01T23:24:54;3.90;94.90
2855;DHT22;1435;49.472;10.940;2023-03-01T23:29:56;3.80;95.00
2855;DHT22;1435;49.472;10.940;2023-03-01T23:34:59;3.80;95.00
2855;DHT22;1435;49.472;10.940;2023-03-01T23:40:00;3.70;95.10
2855;DHT22;1435;49.472;10.940;2023-03-01T23:45:06;3.60;95.20
2855;DHT22;1435;49.472;10.940;2023-03-01T23:50:10;3.60;95.30
2855;DHT22;1435;49.472;10.940;2023-03-01T23:55:13;3.50;95.70
